KIND/IND METAR and TAF weather

Enter ICAO airport designator
Station Type Date Time Source
KIND METAR 2021/03/08 11:54 UTC NOAA

KIND 081154Z 16006KT 10SM SCT250 01/M07 A3042 RMK AO2 SLP308 T00111072 10033 20000 51004


Station Type Date Time Source
KIND Decoded METAR 2021/03/08 11:54 UTC NOAA

INDIANAPOLIS INTERNATIONAL AIRPORT , IN, United States (KIND) 39-43N 86-17W 242M
Mar 08, 2021 - 06:54 AM EST / 2021.03.08 1154 UTC
Wind: from the SSE (160 degrees) at 7 MPH (6 KT):0
Visibility: 10 mile(s):0
Sky conditions: partly cloudy
Temperature: 34.0 F (1.1 C)
Windchill: 28 F (-2 C):1
Dew Point: 19.0 F (-7.2 C)
Relative Humidity: 53%
Pressure (altimeter): 30.42 in. Hg (1030 hPa)
Pressure tendency: 0.01 inches (0.4 hPa) higher than three hours ago
ob: KIND 081154Z 16006KT 10SM SCT250 01/M07 A3042 RMK AO2 SLP308 T00111072 10033 20000 51004
cycle: 12

Station Type Date Time Source
KIND TAF 2021/03/08 12:22 UTC NOAA

TAF KIND 081120Z 0812/0918 19006KT P6SM SCT250
FM081800 23014KT P6SM FEW050
FM090000 21008KT P6SM SCT250

Example: see airport list